sensor_id;sensor_type;location;lat;lon;timestamp;P1;durP1;ratioP1;P2;durP2;ratioP2
70970;SDS011;58632;51.718;19.446;2024-03-23T00:54:42;22.50;;;16.60;;
70970;SDS011;58632;51.718;19.446;2024-03-23T00:57:08;27.70;;;17.90;;
70970;SDS011;58632;51.718;19.446;2024-03-23T00:59:33;28.20;;;16.90;;
70970;SDS011;58632;51.718;19.446;2024-03-23T01:01:59;27.30;;;16.90;;
70970;SDS011;58632;51.718;19.446;2024-03-23T01:04:24;24.40;;;15.20;;
70970;SDS011;58632;51.718;19.446;2024-03-23T01:06:53;26.20;;;17.40;;
70970;SDS011;58632;51.718;19.446;2024-03-23T01:09:19;23.50;;;16.20;;
70970;SDS011;58632;51.718;19.446;2024-03-23T01:11:44;22.30;;;15.80;;
70970;SDS011;58632;51.718;19.446;2024-03-23T01:14:10;26.20;;;17.20;;
70970;SDS011;58632;51.718;19.446;2024-03-23T01:16:35;26.50;;;16.40;;
70970;SDS011;58632;51.718;19.446;2024-03-23T01:19:01;22.70;;;15.40;;
70970;SDS011;58632;51.718;19.446;2024-03-23T01:21:26;25.90;;;15.40;;
70970;SDS011;58632;51.718;19.446;2024-03-23T01:23:52;22.80;;;14.10;;
70970;SDS011;58632;51.718;19.446;2024-03-23T01:26:17;22.40;;;16.20;;
70970;SDS011;58632;51.718;19.446;2024-03-23T01:28:45;22.90;;;15.20;;
70970;SDS011;58632;51.718;19.446;2024-03-23T01:31:11;23.50;;;15.00;;
70970;SDS011;58632;51.718;19.446;2024-03-23T01:33:37;23.10;;;16.40;;
70970;SDS011;58632;51.718;19.446;2024-03-23T01:36:02;24.10;;;15.50;;
70970;SDS011;58632;51.718;19.446;2024-03-23T01:38:28;25.70;;;15.20;;
70970;SDS011;58632;51.718;19.446;2024-03-23T01:40:56;21.40;;;14.50;;
70970;SDS011;58632;51.718;19.446;2024-03-23T01:43:22;24.70;;;15.00;;
70970;SDS011;58632;51.718;19.446;2024-03-23T01:45:48;21.90;;;15.40;;
70970;SDS011;58632;51.718;19.446;2024-03-23T01:48:14;25.20;;;15.10;;
70970;SDS011;58632;51.718;19.446;2024-03-23T01:50:39;22.50;;;15.50;;
70970;SDS011;58632;51.718;19.446;2024-03-23T01:53:05;23.90;;;15.70;;
70970;SDS011;58632;51.718;19.446;2024-03-23T01:55:32;25.60;;;16.10;;
70970;SDS011;58632;51.718;19.446;2024-03-23T01:57:58;24.60;;;14.90;;
70970;SDS011;58632;51.718;19.446;2024-03-23T02:00:24;23.20;;;14.00;;
70970;SDS011;58632;51.718;19.446;2024-03-23T02:02:50;23.70;;;13.20;;
70970;SDS011;58632;51.718;19.446;2024-03-23T02:05:15;20.80;;;13.90;;
70970;SDS011;58632;51.718;19.446;2024-03-23T02:07:42;22.70;;;15.50;;
70970;SDS011;58632;51.718;19.446;2024-03-23T02:10:08;21.30;;;13.50;;
70970;SDS011;58632;51.718;19.446;2024-03-23T02:15:01;22.90;;;14.00;;
70970;SDS011;58632;51.718;19.446;2024-03-23T02:17:27;20.70;;;13.70;;
70970;SDS011;58632;51.718;19.446;2024-03-23T02:19:54;21.90;;;14.90;;
70970;SDS011;58632;51.718;19.446;2024-03-23T02:22:19;23.90;;;15.80;;
70970;SDS011;58632;51.718;19.446;2024-03-23T02:24:45;23.90;;;15.00;;
70970;SDS011;58632;51.718;19.446;2024-03-23T02:27:11;22.20;;;14.40;;
70970;SDS011;58632;51.718;19.446;2024-03-23T02:32:04;22.80;;;13.20;;
70970;SDS011;58632;51.718;19.446;2024-03-23T02:34:31;22.10;;;14.40;;
70970;SDS011;58632;51.718;19.446;2024-03-23T02:36:56;21.80;;;14.40;;
70970;SDS011;58632;51.718;19.446;2024-03-23T02:39:22;22.40;;;14.30;;
70970;SDS011;58632;51.718;19.446;2024-03-23T02:41:48;23.00;;;13.40;;
70970;SDS011;58632;51.718;19.446;2024-03-23T02:44:13;25.40;;;16.10;;
70970;SDS011;58632;51.718;19.446;2024-03-23T02:46:39;25.90;;;16.60;;
70970;SDS011;58632;51.718;19.446;2024-03-23T02:49:05;22.40;;;14.80;;
70970;SDS011;58632;51.718;19.446;2024-03-23T02:51:30;24.90;;;17.20;;
70970;SDS011;58632;51.718;19.446;2024-03-23T02:53:57;20.90;;;14.50;;
70970;SDS011;58632;51.718;19.446;2024-03-23T02:56:22;21.50;;;14.70;;
70970;SDS011;58632;51.718;19.446;2024-03-23T02:58:48;20.70;;;14.20;;
70970;SDS011;58632;51.718;19.446;2024-03-23T03:01:14;21.30;;;15.20;;
70970;SDS011;58632;51.718;19.446;2024-03-23T03:03:39;20.90;;;14.50;;
70970;SDS011;58632;51.718;19.446;2024-03-23T03:06:05;23.10;;;15.70;;
70970;SDS011;58632;51.718;19.446;2024-03-23T03:08:31;22.90;;;15.20;;
70970;SDS011;58632;51.718;19.446;2024-03-23T03:10:56;23.10;;;15.30;;
70970;SDS011;58632;51.718;19.446;2024-03-23T03:13:24;23.60;;;15.00;;
70970;SDS011;58632;51.718;19.446;2024-03-23T03:15:49;21.00;;;15.40;;
70970;SDS011;58632;51.718;19.446;2024-03-23T03:18:15;19.50;;;14.50;;
70970;SDS011;58632;51.718;19.446;2024-03-23T03:20:40;19.60;;;14.20;;
70970;SDS011;58632;51.718;19.446;2024-03-23T03:23:06;20.00;;;13.90;;
70970;SDS011;58632;51.718;19.446;2024-03-23T03:25:32;23.80;;;15.90;;
70970;SDS011;58632;51.718;19.446;2024-03-23T03:27:58;23.10;;;14.30;;
70970;SDS011;58632;51.718;19.446;2024-03-23T03:30:27;22.10;;;14.90;;
70970;SDS011;58632;51.718;19.446;2024-03-23T03:32:53;20.40;;;13.40;;
70970;SDS011;58632;51.718;19.446;2024-03-23T03:35:21;20.60;;;13.10;;
70970;SDS011;58632;51.718;19.446;2024-03-23T03:37:47;21.60;;;12.70;;
70970;SDS011;58632;51.718;19.446;2024-03-23T03:40:12;20.20;;;13.40;;
70970;SDS011;58632;51.718;19.446;2024-03-23T03:42:40;20.80;;;12.80;;
70970;SDS011;58632;51.718;19.446;2024-03-23T03:45:06;20.60;;;13.90;;
70970;SDS011;58632;51.718;19.446;2024-03-23T03:47:32;19.10;;;12.60;;
70970;SDS011;58632;51.718;19.446;2024-03-23T03:49:57;21.00;;;13.50;;
70970;SDS011;58632;51.718;19.446;2024-03-23T03:52:23;18.80;;;13.10;;
70970;SDS011;58632;51.718;19.446;2024-03-23T03:54:49;22.40;;;13.60;;
70970;SDS011;58632;51.718;19.446;2024-03-23T03:57:15;17.20;;;11.70;;
70970;SDS011;58632;51.718;19.446;2024-03-23T03:59:42;20.40;;;12.80;;
70970;SDS011;58632;51.718;19.446;2024-03-23T04:02:08;20.60;;;13.70;;
70970;SDS011;58632;51.718;19.446;2024-03-23T04:04:33;20.00;;;14.10;;
70970;SDS011;58632;51.718;19.446;2024-03-23T04:06:59;22.50;;;15.10;;
70970;SDS011;58632;51.718;19.446;2024-03-23T04:09:25;20.60;;;13.70;;
70970;SDS011;58632;51.718;19.446;2024-03-23T04:11:51;19.60;;;14.10;;
70970;SDS011;58632;51.718;19.446;2024-03-23T04:14:16;20.80;;;13.50;;
70970;SDS011;58632;51.718;19.446;2024-03-23T04:16:42;20.30;;;13.30;;
70970;SDS011;58632;51.718;19.446;2024-03-23T04:19:07;18.30;;;12.60;;
70970;SDS011;58632;51.718;19.446;2024-03-23T04:21:34;22.80;;;13.50;;
70970;SDS011;58632;51.718;19.446;2024-03-23T04:24:03;18.90;;;13.20;;
70970;SDS011;58632;51.718;19.446;2024-03-23T04:26:41;20.40;;;13.00;;
70970;SDS011;58632;51.718;19.446;2024-03-23T04:29:07;21.50;;;13.80;;
70970;SDS011;58632;51.718;19.446;2024-03-23T04:31:32;22.00;;;13.50;;
70970;SDS011;58632;51.718;19.446;2024-03-23T04:34:00;20.70;;;12.50;;
70970;SDS011;58632;51.718;19.446;2024-03-23T04:36:26;21.00;;;13.80;;
70970;SDS011;58632;51.718;19.446;2024-03-23T04:38:51;27.70;;;15.80;;
70970;SDS011;58632;51.718;19.446;2024-03-23T04:41:19;28.80;;;16.60;;
70970;SDS011;58632;51.718;19.446;2024-03-23T04:43:45;27.00;;;15.80;;
70970;SDS011;58632;51.718;19.446;2024-03-23T04:46:13;22.50;;;14.80;;
70970;SDS011;58632;51.718;19.446;2024-03-23T04:48:39;22.30;;;14.50;;
70970;SDS011;58632;51.718;19.446;2024-03-23T04:51:05;22.40;;;14.80;;
70970;SDS011;58632;51.718;19.446;2024-03-23T04:53:30;20.50;;;13.50;;
70970;SDS011;58632;51.718;19.446;2024-03-23T04:55:56;21.40;;;13.80;;
70970;SDS011;58632;51.718;19.446;2024-03-23T04:58:24;21.80;;;13.90;;
70970;SDS011;58632;51.718;19.446;2024-03-23T05:00:53;19.90;;;13.00;;
70970;SDS011;58632;51.718;19.446;2024-03-23T05:03:22;20.00;;;12.40;;
70970;SDS011;58632;51.718;19.446;2024-03-23T05:05:49;20.90;;;13.10;;
70970;SDS011;58632;51.718;19.446;2024-03-23T05:08:15;22.30;;;14.30;;
70970;SDS011;58632;51.718;19.446;2024-03-23T05:10:44;21.90;;;13.20;;
70970;SDS011;58632;51.718;19.446;2024-03-23T05:13:10;21.40;;;13.00;;
70970;SDS011;58632;51.718;19.446;2024-03-23T05:15:35;18.60;;;12.30;;
70970;SDS011;58632;51.718;19.446;2024-03-23T05:18:01;18.90;;;12.10;;
70970;SDS011;58632;51.718;19.446;2024-03-23T05:20:27;20.00;;;13.20;;
70970;SDS011;58632;51.718;19.446;2024-03-23T05:22:54;20.30;;;13.10;;
70970;SDS011;58632;51.718;19.446;2024-03-23T05:25:20;20.70;;;13.50;;
70970;SDS011;58632;51.718;19.446;2024-03-23T05:27:46;20.50;;;13.70;;
70970;SDS011;58632;51.718;19.446;2024-03-23T05:30:11;17.90;;;11.80;;
70970;SDS011;58632;51.718;19.446;2024-03-23T05:32:37;19.30;;;13.20;;
70970;SDS011;58632;51.718;19.446;2024-03-23T05:35:06;18.30;;;12.40;;
70970;SDS011;58632;51.718;19.446;2024-03-23T05:37:32;18.00;;;12.00;;
70970;SDS011;58632;51.718;19.446;2024-03-23T05:39:59;15.80;;;10.80;;
70970;SDS011;58632;51.718;19.446;2024-03-23T05:42:25;17.50;;;11.80;;
70970;SDS011;58632;51.718;19.446;2024-03-23T05:44:51;17.10;;;11.40;;
70970;SDS011;58632;51.718;19.446;2024-03-23T05:47:17;18.50;;;11.90;;
70970;SDS011;58632;51.718;19.446;2024-03-23T05:49:45;18.10;;;11.10;;
70970;SDS011;58632;51.718;19.446;2024-03-23T05:52:11;15.20;;;10.00;;
70970;SDS011;58632;51.718;19.446;2024-03-23T05:54:37;15.80;;;10.40;;
70970;SDS011;58632;51.718;19.446;2024-03-23T05:57:03;16.40;;;10.10;;
70970;SDS011;58632;51.718;19.446;2024-03-23T05:59:29;16.30;;;10.10;;
70970;SDS011;58632;51.718;19.446;2024-03-23T06:01:57;17.10;;;10.80;;
70970;SDS011;58632;51.718;19.446;2024-03-23T06:04:23;16.40;;;11.00;;
70970;SDS011;58632;51.718;19.446;2024-03-23T06:06:48;15.30;;;10.40;;
70970;SDS011;58632;51.718;19.446;2024-03-23T06:09:14;16.60;;;10.10;;
70970;SDS011;58632;51.718;19.446;2024-03-23T06:11:39;18.90;;;10.80;;
70970;SDS011;58632;51.718;19.446;2024-03-23T06:14:05;16.80;;;9.50;;
70970;SDS011;58632;51.718;19.446;2024-03-23T06:16:31;16.40;;;9.70;;
70970;SDS011;58632;51.718;19.446;2024-03-23T06:18:56;13.00;;;8.80;;
70970;SDS011;58632;51.718;19.446;2024-03-23T06:21:23;16.90;;;10.60;;
70970;SDS011;58632;51.718;19.446;2024-03-23T06:23:51;19.30;;;12.60;;
70970;SDS011;58632;51.718;19.446;2024-03-23T06:26:18;18.00;;;11.50;;
70970;SDS011;58632;51.718;19.446;2024-03-23T06:28:44;18.10;;;11.40;;
70970;SDS011;58632;51.718;19.446;2024-03-23T06:31:10;19.30;;;10.50;;
70970;SDS011;58632;51.718;19.446;2024-03-23T06:33:36;15.90;;;10.40;;
70970;SDS011;58632;51.718;19.446;2024-03-23T06:36:02;17.10;;;11.10;;
70970;SDS011;58632;51.718;19.446;2024-03-23T06:38:28;17.20;;;10.40;;
70970;SDS011;58632;51.718;19.446;2024-03-23T06:40:56;15.50;;;10.10;;
70970;SDS011;58632;51.718;19.446;2024-03-23T06:43:23;16.60;;;9.90;;
70970;SDS011;58632;51.718;19.446;2024-03-23T06:45:54;16.80;;;10.50;;
70970;SDS011;58632;51.718;19.446;2024-03-23T06:48:20;16.90;;;11.50;;
70970;SDS011;58632;51.718;19.446;2024-03-23T06:50:46;15.40;;;10.30;;
70970;SDS011;58632;51.718;19.446;2024-03-23T06:53:12;14.80;;;9.70;;
70970;SDS011;58632;51.718;19.446;2024-03-23T06:55:38;20.50;;;12.80;;
70970;SDS011;58632;51.718;19.446;2024-03-23T06:58:03;22.90;;;14.50;;
70970;SDS011;58632;51.718;19.446;2024-03-23T07:00:29;16.70;;;11.40;;
70970;SDS011;58632;51.718;19.446;2024-03-23T07:02:55;16.10;;;11.60;;
70970;SDS011;58632;51.718;19.446;2024-03-23T07:05:21;14.70;;;10.20;;
70970;SDS011;58632;51.718;19.446;2024-03-23T07:07:46;14.30;;;9.70;;
70970;SDS011;58632;51.718;19.446;2024-03-23T07:10:12;13.80;;;9.40;;
70970;SDS011;58632;51.718;19.446;2024-03-23T07:12:37;15.20;;;9.90;;
70970;SDS011;58632;51.718;19.446;2024-03-23T07:15:03;15.10;;;10.40;;
70970;SDS011;58632;51.718;19.446;2024-03-23T07:17:29;20.50;;;13.00;;
70970;SDS011;58632;51.718;19.446;2024-03-23T07:19:55;14.90;;;9.40;;
70970;SDS011;58632;51.718;19.446;2024-03-23T07:22:21;17.90;;;11.00;;
70970;SDS011;58632;51.718;19.446;2024-03-23T07:24:46;16.00;;;10.00;;
70970;SDS011;58632;51.718;19.446;2024-03-23T07:27:12;13.70;;;9.50;;
70970;SDS011;58632;51.718;19.446;2024-03-23T07:29:38;16.10;;;9.50;;
70970;SDS011;58632;51.718;19.446;2024-03-23T07:32:06;12.50;;;8.70;;
70970;SDS011;58632;51.718;19.446;2024-03-23T07:34:34;14.90;;;9.20;;
70970;SDS011;58632;51.718;19.446;2024-03-23T07:37:00;14.80;;;9.30;;
70970;SDS011;58632;51.718;19.446;2024-03-23T07:39:25;13.50;;;9.40;;
70970;SDS011;58632;51.718;19.446;2024-03-23T07:41:52;13.10;;;9.20;;
70970;SDS011;58632;51.718;19.446;2024-03-23T07:44:18;16.20;;;10.60;;
70970;SDS011;58632;51.718;19.446;2024-03-23T07:46:44;16.00;;;9.70;;
70970;SDS011;58632;51.718;19.446;2024-03-23T07:49:09;12.20;;;8.30;;
70970;SDS011;58632;51.718;19.446;2024-03-23T07:51:35;15.40;;;10.20;;
70970;SDS011;58632;51.718;19.446;2024-03-23T07:54:01;15.70;;;10.50;;
70970;SDS011;58632;51.718;19.446;2024-03-23T07:56:26;13.20;;;8.80;;
70970;SDS011;58632;51.718;19.446;2024-03-23T07:58:52;19.60;;;11.60;;
70970;SDS011;58632;51.718;19.446;2024-03-23T08:01:20;16.90;;;10.40;;
70970;SDS011;58632;51.718;19.446;2024-03-23T08:03:46;12.60;;;9.10;;
70970;SDS011;58632;51.718;19.446;2024-03-23T08:06:12;12.80;;;9.00;;
70970;SDS011;58632;51.718;19.446;2024-03-23T08:08:39;13.80;;;8.60;;
70970;SDS011;58632;51.718;19.446;2024-03-23T08:11:09;17.50;;;10.20;;
70970;SDS011;58632;51.718;19.446;2024-03-23T08:13:35;15.70;;;10.10;;
70970;SDS011;58632;51.718;19.446;2024-03-23T08:16:07;16.00;;;9.30;;
70970;SDS011;58632;51.718;19.446;2024-03-23T08:18:33;16.40;;;9.40;;
70970;SDS011;58632;51.718;19.446;2024-03-23T08:21:00;15.90;;;9.90;;
70970;SDS011;58632;51.718;19.446;2024-03-23T08:23:27;18.00;;;10.60;;
70970;SDS011;58632;51.718;19.446;2024-03-23T08:25:57;17.00;;;9.70;;
70970;SDS011;58632;51.718;19.446;2024-03-23T08:28:23;17.20;;;10.00;;
70970;SDS011;58632;51.718;19.446;2024-03-23T08:30:49;17.60;;;10.00;;
70970;SDS011;58632;51.718;19.446;2024-03-23T08:33:15;13.90;;;9.10;;
70970;SDS011;58632;51.718;19.446;2024-03-23T08:35:41;15.00;;;9.00;;
70970;SDS011;58632;51.718;19.446;2024-03-23T08:38:07;14.70;;;8.40;;
70970;SDS011;58632;51.718;19.446;2024-03-23T08:40:32;13.00;;;9.20;;
70970;SDS011;58632;51.718;19.446;2024-03-23T08:42:58;12.10;;;8.10;;
70970;SDS011;58632;51.718;19.446;2024-03-23T08:45:24;11.50;;;7.60;;
70970;SDS011;58632;51.718;19.446;2024-03-23T08:47:51;12.60;;;7.80;;
70970;SDS011;58632;51.718;19.446;2024-03-23T08:50:17;11.40;;;8.00;;
70970;SDS011;58632;51.718;19.446;2024-03-23T08:52:43;13.50;;;9.30;;
70970;SDS011;58632;51.718;19.446;2024-03-23T08:55:09;15.90;;;9.80;;
70970;SDS011;58632;51.718;19.446;2024-03-23T08:57:35;14.50;;;10.20;;
70970;SDS011;58632;51.718;19.446;2024-03-23T09:00:04;11.90;;;7.90;;
70970;SDS011;58632;51.718;19.446;2024-03-23T09:02:31;15.70;;;9.50;;
70970;SDS011;58632;51.718;19.446;2024-03-23T09:04:56;13.50;;;9.50;;
70970;SDS011;58632;51.718;19.446;2024-03-23T09:07:29;13.00;;;8.10;;
70970;SDS011;58632;51.718;19.446;2024-03-23T09:09:58;10.10;;;7.70;;
70970;SDS011;58632;51.718;19.446;2024-03-23T09:12:23;13.20;;;8.40;;
70970;SDS011;58632;51.718;19.446;2024-03-23T09:14:50;19.00;;;11.30;;
70970;SDS011;58632;51.718;19.446;2024-03-23T09:19:41;14.60;;;9.90;;
70970;SDS011;58632;51.718;19.446;2024-03-23T09:22:07;14.70;;;9.00;;
70970;SDS011;58632;51.718;19.446;2024-03-23T09:24:35;12.50;;;7.50;;
70970;SDS011;58632;51.718;19.446;2024-03-23T09:27:01;13.60;;;8.90;;
70970;SDS011;58632;51.718;19.446;2024-03-23T09:29:28;12.80;;;9.50;;
70970;SDS011;58632;51.718;19.446;2024-03-23T09:31:53;12.90;;;8.60;;
70970;SDS011;58632;51.718;19.446;2024-03-23T09:34:19;14.50;;;10.00;;
70970;SDS011;58632;51.718;19.446;2024-03-23T09:36:50;13.70;;;9.00;;
70970;SDS011;58632;51.718;19.446;2024-03-23T09:39:17;12.70;;;9.10;;
70970;SDS011;58632;51.718;19.446;2024-03-23T09:41:43;14.60;;;9.50;;
70970;SDS011;58632;51.718;19.446;2024-03-23T09:44:09;12.70;;;9.20;;
70970;SDS011;58632;51.718;19.446;2024-03-23T09:46:34;12.10;;;7.30;;
70970;SDS011;58632;51.718;19.446;2024-03-23T09:49:05;9.80;;;7.70;;
70970;SDS011;58632;51.718;19.446;2024-03-23T09:51:35;10.30;;;7.70;;
70970;SDS011;58632;51.718;19.446;2024-03-23T09:54:01;10.50;;;7.30;;
70970;SDS011;58632;51.718;19.446;2024-03-23T09:56:27;9.90;;;6.90;;
70970;SDS011;58632;51.718;19.446;2024-03-23T09:58:59;10.20;;;7.30;;
70970;SDS011;58632;51.718;19.446;2024-03-23T10:01:26;11.40;;;7.20;;
70970;SDS011;58632;51.718;19.446;2024-03-23T10:03:51;11.70;;;7.80;;
70970;SDS011;58632;51.718;19.446;2024-03-23T10:06:21;9.00;;;5.90;;
70970;SDS011;58632;51.718;19.446;2024-03-23T10:08:49;10.90;;;6.20;;
70970;SDS011;58632;51.718;19.446;2024-03-23T10:11:16;11.80;;;7.90;;
70970;SDS011;58632;51.718;19.446;2024-03-23T10:13:45;15.30;;;10.00;;
70970;SDS011;58632;51.718;19.446;2024-03-23T10:16:12;11.00;;;6.70;;
70970;SDS011;58632;51.718;19.446;2024-03-23T10:18:45;10.60;;;6.90;;
70970;SDS011;58632;51.718;19.446;2024-03-23T10:21:11;12.60;;;8.40;;
70970;SDS011;58632;51.718;19.446;2024-03-23T10:23:40;10.10;;;6.50;;
70970;SDS011;58632;51.718;19.446;2024-03-23T10:26:14;9.90;;;6.30;;
70970;SDS011;58632;51.718;19.446;2024-03-23T10:28:53;9.50;;;5.80;;
70970;SDS011;58632;51.718;19.446;2024-03-23T10:31:29;9.60;;;5.90;;
70970;SDS011;58632;51.718;19.446;2024-03-23T10:33:59;12.70;;;7.70;;
70970;SDS011;58632;51.718;19.446;2024-03-23T10:36:28;12.30;;;8.30;;
70970;SDS011;58632;51.718;19.446;2024-03-23T10:38:55;10.10;;;6.60;;
70970;SDS011;58632;51.718;19.446;2024-03-23T10:41:25;16.80;;;8.40;;
70970;SDS011;58632;51.718;19.446;2024-03-23T10:43:52;9.70;;;7.20;;
70970;SDS011;58632;51.718;19.446;2024-03-23T10:46:20;8.40;;;6.20;;
70970;SDS011;58632;51.718;19.446;2024-03-23T10:48:46;7.90;;;5.90;;
70970;SDS011;58632;51.718;19.446;2024-03-23T10:51:12;8.90;;;6.50;;
70970;SDS011;58632;51.718;19.446;2024-03-23T10:53:39;10.70;;;7.20;;
70970;SDS011;58632;51.718;19.446;2024-03-23T10:56:08;7.30;;;5.60;;
70970;SDS011;58632;51.718;19.446;2024-03-23T10:58:37;7.10;;;5.30;;
70970;SDS011;58632;51.718;19.446;2024-03-23T11:01:04;9.20;;;6.40;;
70970;SDS011;58632;51.718;19.446;2024-03-23T11:03:38;8.40;;;5.80;;
70970;SDS011;58632;51.718;19.446;2024-03-23T11:06:05;7.70;;;5.70;;
70970;SDS011;58632;51.718;19.446;2024-03-23T11:08:41;10.60;;;5.90;;
70970;SDS011;58632;51.718;19.446;2024-03-23T11:11:17;9.30;;;6.40;;
70970;SDS011;58632;51.718;19.446;2024-03-23T11:13:52;12.60;;;7.10;;
70970;SDS011;58632;51.718;19.446;2024-03-23T11:16:23;10.80;;;6.80;;
70970;SDS011;58632;51.718;19.446;2024-03-23T11:18:50;9.80;;;6.30;;
70970;SDS011;58632;51.718;19.446;2024-03-23T11:24:20;9.10;;;6.90;;
70970;SDS011;58632;51.718;19.446;2024-03-23T11:26:47;10.20;;;7.50;;
70970;SDS011;58632;51.718;19.446;2024-03-23T11:29:13;11.00;;;9.60;;
70970;SDS011;58632;51.718;19.446;2024-03-23T11:31:50;8.30;;;6.80;;
70970;SDS011;58632;51.718;19.446;2024-03-23T11:34:17;12.90;;;7.50;;
70970;SDS011;58632;51.718;19.446;2024-03-23T11:36:44;11.50;;;8.10;;
70970;SDS011;58632;51.718;19.446;2024-03-23T11:39:13;12.50;;;7.70;;
70970;SDS011;58632;51.718;19.446;2024-03-23T11:44:33;10.80;;;7.30;;
70970;SDS011;58632;51.718;19.446;2024-03-23T11:47:08;10.80;;;7.60;;
70970;SDS011;58632;51.718;19.446;2024-03-23T11:49:35;10.30;;;6.90;;
70970;SDS011;58632;51.718;19.446;2024-03-23T11:52:09;12.30;;;7.50;;
70970;SDS011;58632;51.718;19.446;2024-03-23T11:54:34;11.10;;;6.90;;
70970;SDS011;58632;51.718;19.446;2024-03-23T11:57:04;8.90;;;6.30;;
70970;SDS011;58632;51.718;19.446;2024-03-23T11:59:37;12.90;;;7.60;;
70970;SDS011;58632;51.718;19.446;2024-03-23T12:02:09;10.50;;;6.50;;
70970;SDS011;58632;51.718;19.446;2024-03-23T12:04:36;9.20;;;6.30;;
70970;SDS011;58632;51.718;19.446;2024-03-23T12:10:03;12.60;;;6.30;;
70970;SDS011;58632;51.718;19.446;2024-03-23T12:12:30;14.70;;;6.30;;
70970;SDS011;58632;51.718;19.446;2024-03-23T12:15:05;10.90;;;6.90;;
70970;SDS011;58632;51.718;19.446;2024-03-23T12:17:33;11.20;;;6.30;;
70970;SDS011;58632;51.718;19.446;2024-03-23T12:20:02;8.60;;;6.20;;
70970;SDS011;58632;51.718;19.446;2024-03-23T12:22:29;8.30;;;6.30;;
70970;SDS011;58632;51.718;19.446;2024-03-23T12:24:55;10.50;;;5.70;;
70970;SDS011;58632;51.718;19.446;2024-03-23T12:27:21;9.60;;;6.00;;
70970;SDS011;58632;51.718;19.446;2024-03-23T12:29:46;8.50;;;6.10;;
70970;SDS011;58632;51.718;19.446;2024-03-23T12:32:13;8.60;;;6.60;;
70970;SDS011;58632;51.718;19.446;2024-03-23T12:37:04;9.50;;;6.40;;
70970;SDS011;58632;51.718;19.446;2024-03-23T12:39:31;16.20;;;7.80;;
70970;SDS011;58632;51.718;19.446;2024-03-23T12:42:00;12.90;;;7.90;;
70970;SDS011;58632;51.718;19.446;2024-03-23T12:44:27;10.90;;;7.00;;
70970;SDS011;58632;51.718;19.446;2024-03-23T12:46:53;13.10;;;7.80;;
70970;SDS011;58632;51.718;19.446;2024-03-23T12:49:19;14.50;;;9.20;;
70970;SDS011;58632;51.718;19.446;2024-03-23T12:51:53;14.00;;;9.90;;
70970;SDS011;58632;51.718;19.446;2024-03-23T12:54:20;14.50;;;8.60;;
70970;SDS011;58632;51.718;19.446;2024-03-23T12:56:46;16.40;;;8.40;;
70970;SDS011;58632;51.718;19.446;2024-03-23T12:59:12;13.60;;;8.40;;
70970;SDS011;58632;51.718;19.446;2024-03-23T13:01:38;14.90;;;9.30;;
70970;SDS011;58632;51.718;19.446;2024-03-23T13:04:04;12.80;;;8.10;;
70970;SDS011;58632;51.718;19.446;2024-03-23T13:06:29;10.30;;;7.50;;
70970;SDS011;58632;51.718;19.446;2024-03-23T13:08:59;11.80;;;7.80;;
70970;SDS011;58632;51.718;19.446;2024-03-23T13:11:30;15.00;;;8.70;;
70970;SDS011;58632;51.718;19.446;2024-03-23T13:13:56;14.40;;;8.60;;
70970;SDS011;58632;51.718;19.446;2024-03-23T13:16:21;12.10;;;7.50;;
70970;SDS011;58632;51.718;19.446;2024-03-23T13:18:47;12.60;;;7.60;;
70970;SDS011;58632;51.718;19.446;2024-03-23T13:21:13;12.70;;;7.20;;
70970;SDS011;58632;51.718;19.446;2024-03-23T13:23:39;10.30;;;7.10;;
70970;SDS011;58632;51.718;19.446;2024-03-23T13:26:07;12.10;;;6.50;;
70970;SDS011;58632;51.718;19.446;2024-03-23T13:28:33;11.50;;;7.20;;
70970;SDS011;58632;51.718;19.446;2024-03-23T13:30:59;11.60;;;7.00;;
70970;SDS011;58632;51.718;19.446;2024-03-23T13:33:28;10.50;;;7.20;;
70970;SDS011;58632;51.718;19.446;2024-03-23T13:35:57;10.30;;;7.60;;
70970;SDS011;58632;51.718;19.446;2024-03-23T13:38:23;10.50;;;7.00;;
70970;SDS011;58632;51.718;19.446;2024-03-23T13:40:51;11.10;;;7.10;;
70970;SDS011;58632;51.718;19.446;2024-03-23T13:43:24;12.20;;;8.50;;
70970;SDS011;58632;51.718;19.446;2024-03-23T13:45:54;14.70;;;11.00;;
70970;SDS011;58632;51.718;19.446;2024-03-23T13:48:21;16.70;;;12.00;;
70970;SDS011;58632;51.718;19.446;2024-03-23T13:51:02;16.10;;;10.90;;
70970;SDS011;58632;51.718;19.446;2024-03-23T13:53:29;14.10;;;10.30;;
70970;SDS011;58632;51.718;19.446;2024-03-23T13:55:57;12.90;;;7.70;;
70970;SDS011;58632;51.718;19.446;2024-03-23T13:58:23;10.30;;;6.50;;
70970;SDS011;58632;51.718;19.446;2024-03-23T14:00:50;7.10;;;4.70;;
70970;SDS011;58632;51.718;19.446;2024-03-23T14:03:16;7.00;;;3.90;;
70970;SDS011;58632;51.718;19.446;2024-03-23T14:05:43;8.50;;;4.10;;
70970;SDS011;58632;51.718;19.446;2024-03-23T14:08:10;6.80;;;3.90;;
70970;SDS011;58632;51.718;19.446;2024-03-23T14:10:36;6.60;;;3.90;;
70970;SDS011;58632;51.718;19.446;2024-03-23T14:13:05;8.10;;;4.80;;
70970;SDS011;58632;51.718;19.446;2024-03-23T14:15:30;8.80;;;5.70;;
70970;SDS011;58632;51.718;19.446;2024-03-23T14:18:01;20.20;;;13.90;;
70970;SDS011;58632;51.718;19.446;2024-03-23T14:20:28;20.80;;;14.10;;
70970;SDS011;58632;51.718;19.446;2024-03-23T14:22:53;17.10;;;10.50;;
70970;SDS011;58632;51.718;19.446;2024-03-23T14:25:19;14.40;;;9.20;;
70970;SDS011;58632;51.718;19.446;2024-03-23T14:27:45;34.50;;;18.80;;
70970;SDS011;58632;51.718;19.446;2024-03-23T14:30:11;21.00;;;14.10;;
70970;SDS011;58632;51.718;19.446;2024-03-23T14:32:40;24.50;;;17.70;;
70970;SDS011;58632;51.718;19.446;2024-03-23T14:35:06;16.70;;;12.10;;
70970;SDS011;58632;51.718;19.446;2024-03-23T14:37:38;13.70;;;9.60;;
70970;SDS011;58632;51.718;19.446;2024-03-23T14:40:04;14.00;;;9.60;;
70970;SDS011;58632;51.718;19.446;2024-03-23T14:42:30;11.80;;;8.80;;
70970;SDS011;58632;51.718;19.446;2024-03-23T14:45:01;17.40;;;10.40;;
70970;SDS011;58632;51.718;19.446;2024-03-23T14:47:27;14.50;;;9.60;;
70970;SDS011;58632;51.718;19.446;2024-03-23T14:49:53;15.90;;;12.60;;
70970;SDS011;58632;51.718;19.446;2024-03-23T14:52:19;22.70;;;15.40;;
70970;SDS011;58632;51.718;19.446;2024-03-23T14:54:45;11.50;;;8.10;;
70970;SDS011;58632;51.718;19.446;2024-03-23T14:57:11;10.40;;;7.10;;
70970;SDS011;58632;51.718;19.446;2024-03-23T14:59:37;12.70;;;8.00;;
70970;SDS011;58632;51.718;19.446;2024-03-23T15:02:03;12.40;;;7.70;;
70970;SDS011;58632;51.718;19.446;2024-03-23T15:04:29;15.10;;;8.80;;
70970;SDS011;58632;51.718;19.446;2024-03-23T15:06:55;14.70;;;9.40;;
70970;SDS011;58632;51.718;19.446;2024-03-23T15:09:21;17.80;;;11.10;;
70970;SDS011;58632;51.718;19.446;2024-03-23T15:11:46;14.10;;;10.50;;
70970;SDS011;58632;51.718;19.446;2024-03-23T15:14:13;17.50;;;11.50;;
70970;SDS011;58632;51.718;19.446;2024-03-23T15:16:39;13.20;;;9.80;;
70970;SDS011;58632;51.718;19.446;2024-03-23T15:19:07;14.10;;;10.20;;
70970;SDS011;58632;51.718;19.446;2024-03-23T15:21:35;12.60;;;9.40;;
70970;SDS011;58632;51.718;19.446;2024-03-23T15:24:01;14.20;;;10.80;;
70970;SDS011;58632;51.718;19.446;2024-03-23T15:26:26;15.20;;;9.10;;